createdAt,value
2023-04-16T00:01:34.150Z,4.60
2023-04-16T00:04:01.948Z,4.30
2023-04-16T00:06:29.851Z,4.60
2023-04-16T00:08:57.809Z,4.20
2023-04-16T00:11:25.677Z,4.60
2023-04-16T00:13:53.362Z,4.20
2023-04-16T00:16:21.326Z,4.70
2023-04-16T00:18:48.994Z,4.60
2023-04-16T00:21:16.662Z,4.80
2023-04-16T00:23:44.423Z,4.90
2023-04-16T00:26:12.210Z,4.60
2023-04-16T00:28:41.645Z,4.80
2023-04-16T00:31:09.357Z,4.70
2023-04-16T00:33:37.232Z,5.00
2023-04-16T00:36:05.317Z,5.10
2023-04-16T00:38:33.180Z,5.50
2023-04-16T00:41:00.937Z,5.00
2023-04-16T00:43:28.871Z,5.60
2023-04-16T00:45:57.527Z,5.00
2023-04-16T00:48:28.006Z,4.90
2023-04-16T00:50:56.201Z,5.20
2023-04-16T00:53:24.484Z,4.50
2023-04-16T00:55:52.287Z,4.80
2023-04-16T00:58:21.391Z,4.60
2023-04-16T01:00:49.133Z,4.30
2023-04-16T01:03:17.242Z,4.70
2023-04-16T01:05:46.322Z,4.70
2023-04-16T01:08:21.530Z,4.70
2023-04-16T01:10:49.346Z,4.70
2023-04-16T01:13:17.013Z,4.90
2023-04-16T01:15:44.650Z,4.80
2023-04-16T01:18:16.712Z,5.00
2023-04-16T01:20:45.946Z,5.00
2023-04-16T01:23:14.191Z,5.10
2023-04-16T01:25:41.975Z,5.30
2023-04-16T01:28:09.655Z,5.30
2023-04-16T01:30:37.425Z,5.60
2023-04-16T01:33:05.336Z,5.30
2023-04-16T01:35:33.030Z,5.60
2023-04-16T01:38:00.739Z,6.10
2023-04-16T01:40:28.519Z,5.60
2023-04-16T01:42:56.251Z,5.60
2023-04-16T01:45:23.883Z,5.00
2023-04-16T01:47:52.122Z,5.10
2023-04-16T01:50:21.243Z,5.50
2023-04-16T01:52:48.902Z,5.40
2023-04-16T01:55:16.522Z,5.00
2023-04-16T01:57:44.208Z,4.70
2023-04-16T02:00:11.889Z,4.70
2023-04-16T02:02:40.160Z,4.70
2023-04-16T02:05:08.162Z,4.50
2023-04-16T02:07:36.260Z,4.70
2023-04-16T02:10:05.374Z,4.40
2023-04-16T02:12:35.080Z,4.50
2023-04-16T02:15:03.342Z,4.60
2023-04-16T02:17:31.085Z,4.60
2023-04-16T02:19:58.825Z,4.60
2023-04-16T02:22:26.532Z,4.20
2023-04-16T02:24:56.557Z,4.40
2023-04-16T02:27:24.447Z,4.50
2023-04-16T02:29:52.110Z,4.90
2023-04-16T02:32:19.915Z,5.00
2023-04-16T02:34:47.659Z,4.90
2023-04-16T02:37:15.688Z,5.10
2023-04-16T02:39:43.998Z,4.80
2023-04-16T02:42:11.738Z,5.30
2023-04-16T02:44:39.816Z,5.50
2023-04-16T02:47:07.518Z,5.90
2023-04-16T02:49:35.896Z,6.40
2023-04-16T02:52:03.567Z,6.80
2023-04-16T02:54:31.152Z,7.20
2023-04-16T02:56:58.757Z,6.90
2023-04-16T02:59:26.975Z,7.40
2023-04-16T03:01:54.693Z,7.00
2023-04-16T03:04:22.811Z,7.30
2023-04-16T03:06:50.535Z,7.40
2023-04-16T03:09:18.216Z,7.50
2023-04-16T03:11:45.927Z,7.90
2023-04-16T03:14:13.625Z,7.60
2023-04-16T03:16:41.647Z,7.60
2023-04-16T03:19:09.534Z,7.60
2023-04-16T03:21:37.678Z,7.10
2023-04-16T03:24:05.764Z,7.20
2023-04-16T03:26:33.391Z,7.40
2023-04-16T03:29:02.249Z,7.10
2023-04-16T03:31:29.963Z,7.40
2023-04-16T03:33:57.606Z,7.20
2023-04-16T03:36:27.232Z,7.00
2023-04-16T03:38:54.829Z,7.40
2023-04-16T03:41:22.440Z,7.70
2023-04-16T03:43:51.191Z,7.40
2023-04-16T03:46:18.808Z,7.60
2023-04-16T03:48:46.606Z,7.50
2023-04-16T03:51:14.335Z,7.90
2023-04-16T03:53:41.924Z,8.30
2023-04-16T03:56:09.761Z,8.30
2023-04-16T03:58:37.457Z,7.90
2023-04-16T04:01:05.433Z,8.00
2023-04-16T04:03:33.145Z,7.80
2023-04-16T04:06:01.057Z,8.60
2023-04-16T04:08:28.754Z,8.90
2023-04-16T04:10:56.352Z,8.70
2023-04-16T04:13:24.086Z,8.80
2023-04-16T04:15:51.761Z,8.50
2023-04-16T04:18:19.413Z,8.70
2023-04-16T04:20:47.055Z,9.40
2023-04-16T04:23:14.928Z,9.20
2023-04-16T04:25:42.617Z,9.70
2023-04-16T04:28:10.318Z,10.10
2023-04-16T04:30:37.950Z,9.20
2023-04-16T04:33:05.750Z,9.40
2023-04-16T04:35:33.766Z,9.70
2023-04-16T04:38:03.505Z,9.60
2023-04-16T04:40:31.536Z,9.70
2023-04-16T04:42:59.104Z,9.70
2023-04-16T04:45:27.220Z,10.00
2023-04-16T04:47:55.733Z,10.10
2023-04-16T04:50:23.451Z,10.20
2023-04-16T04:52:51.247Z,10.30
2023-04-16T04:55:20.190Z,10.30
2023-04-16T04:57:49.038Z,10.80
2023-04-16T05:00:16.658Z,10.10
2023-04-16T05:02:44.461Z,10.40
2023-04-16T05:05:12.172Z,10.80
2023-04-16T05:07:39.780Z,10.60
2023-04-16T05:10:08.207Z,10.20
2023-04-16T05:12:35.872Z,10.30
2023-04-16T05:15:03.956Z,10.10
2023-04-16T05:17:31.610Z,10.30
2023-04-16T05:20:00.298Z,10.10
2023-04-16T05:22:28.018Z,10.10
2023-04-16T05:24:55.756Z,9.90
2023-04-16T05:27:23.414Z,9.20
2023-04-16T05:29:51.106Z,9.90
2023-04-16T05:32:19.208Z,9.40
2023-04-16T05:34:46.986Z,9.20
2023-04-16T05:37:15.515Z,9.10
2023-04-16T05:39:43.205Z,9.20
2023-04-16T05:42:10.873Z,9.00
2023-04-16T05:44:38.454Z,9.00
2023-04-16T05:47:07.832Z,9.00
2023-04-16T05:49:39.052Z,8.90
2023-04-16T05:52:07.511Z,8.60
2023-04-16T05:54:35.403Z,9.00
2023-04-16T05:57:04.007Z,8.90
2023-04-16T05:59:31.608Z,9.40
2023-04-16T06:02:01.144Z,9.60
2023-04-16T06:04:29.935Z,10.20
2023-04-16T06:06:58.021Z,10.50
2023-04-16T06:09:25.948Z,10.10
2023-04-16T06:11:53.830Z,10.60
2023-04-16T06:14:21.535Z,10.20
2023-04-16T06:16:49.239Z,10.20
2023-04-16T06:19:16.932Z,10.30
2023-04-16T06:21:44.673Z,10.70
2023-04-16T06:24:13.365Z,11.10
2023-04-16T06:26:41.113Z,10.60
2023-04-16T06:29:09.153Z,10.10
2023-04-16T06:31:37.800Z,10.00
2023-04-16T06:34:05.807Z,10.20
2023-04-16T06:36:33.674Z,9.90
2023-04-16T06:39:02.294Z,10.00
2023-04-16T06:41:30.951Z,10.20
2023-04-16T06:43:58.674Z,9.60
2023-04-16T06:46:26.426Z,9.60
2023-04-16T06:48:54.052Z,9.80
2023-04-16T06:51:21.772Z,8.80
2023-04-16T06:53:51.279Z,8.80
2023-04-16T06:56:19.116Z,9.40
2023-04-16T06:58:46.963Z,8.90
2023-04-16T07:01:14.930Z,9.10
2023-04-16T07:03:43.098Z,7.80
2023-04-16T07:06:10.842Z,7.80
2023-04-16T07:08:39.027Z,7.60
2023-04-16T07:11:07.010Z,7.60
2023-04-16T07:13:35.914Z,8.00
2023-04-16T07:16:04.134Z,7.50
2023-04-16T07:18:34.192Z,7.60
2023-04-16T07:21:02.518Z,7.70
2023-04-16T07:23:31.353Z,7.30
2023-04-16T07:26:02.252Z,6.90
2023-04-16T07:28:30.208Z,7.40
2023-04-16T07:30:58.272Z,7.10
2023-04-16T07:33:26.235Z,7.20
2023-04-16T07:35:55.366Z,7.00
2023-04-16T07:38:23.027Z,7.70
2023-04-16T07:40:51.372Z,7.30
2023-04-16T07:43:19.281Z,7.30
2023-04-16T07:45:47.254Z,7.70
2023-04-16T07:48:15.509Z,7.30
2023-04-16T07:50:46.505Z,7.10
2023-04-16T07:53:14.312Z,7.40
2023-04-16T07:55:44.455Z,7.30
2023-04-16T07:58:15.890Z,7.80
2023-04-16T08:00:43.800Z,7.30
2023-04-16T08:03:12.229Z,7.20
2023-04-16T08:05:40.298Z,7.20
2023-04-16T08:08:08.199Z,7.10
2023-04-16T08:10:36.006Z,6.90
2023-04-16T08:13:03.910Z,7.10
2023-04-16T08:15:32.483Z,7.80
2023-04-16T08:18:00.880Z,7.50
2023-04-16T08:20:28.892Z,8.30
2023-04-16T08:22:56.567Z,7.50
2023-04-16T08:25:24.810Z,7.20
2023-04-16T08:27:52.559Z,6.80
2023-04-16T08:30:21.935Z,7.10
2023-04-16T08:32:50.556Z,7.00
2023-04-16T08:35:18.477Z,6.40
2023-04-16T08:37:46.116Z,6.80
2023-04-16T08:40:14.083Z,6.20
2023-04-16T08:42:53.558Z,6.70
2023-04-16T08:45:21.805Z,6.00
2023-04-16T08:47:51.292Z,6.10
2023-04-16T08:50:26.603Z,6.20
2023-04-16T08:53:04.970Z,5.90
2023-04-16T08:55:38.843Z,6.00
2023-04-16T08:58:14.162Z,5.90
2023-04-16T09:00:43.465Z,6.00
2023-04-16T09:03:11.335Z,5.80
2023-04-16T09:05:39.830Z,6.00
2023-04-16T09:08:08.581Z,5.90
2023-04-16T09:10:36.760Z,6.10
2023-04-16T09:13:04.510Z,6.10
2023-04-16T09:15:35.201Z,5.90
2023-04-16T09:18:03.334Z,5.90
2023-04-16T09:20:31.169Z,6.20
2023-04-16T09:22:58.936Z,6.10
2023-04-16T09:25:26.954Z,5.60
2023-04-16T09:27:54.817Z,6.20
2023-04-16T09:30:24.973Z,6.10
2023-04-16T09:33:11.715Z,6.70
2023-04-16T09:35:50.568Z,6.20
2023-04-16T09:38:19.069Z,6.50
2023-04-16T09:40:49.942Z,6.70
2023-04-16T09:43:18.755Z,6.80
2023-04-16T09:45:54.006Z,6.50
2023-04-16T09:48:30.116Z,6.60
2023-04-16T09:50:59.360Z,5.90
2023-04-16T09:53:31.282Z,5.90
2023-04-16T09:56:01.581Z,6.20
2023-04-16T09:58:29.733Z,6.30
2023-04-16T10:01:11.533Z,6.20
2023-04-16T10:03:40.989Z,6.10
2023-04-16T10:06:21.942Z,6.30
2023-04-16T10:08:58.638Z,6.00
2023-04-16T10:11:27.147Z,6.20
2023-04-16T10:13:54.810Z,6.80
2023-04-16T10:16:23.578Z,6.70
2023-04-16T10:18:53.048Z,6.30
2023-04-16T10:21:21.550Z,6.40
2023-04-16T10:23:52.149Z,7.80
2023-04-16T10:26:20.075Z,7.10
2023-04-16T10:28:47.984Z,6.60
2023-04-16T10:31:16.284Z,6.00
2023-04-16T10:33:45.110Z,6.80
2023-04-16T10:36:28.946Z,6.50
2023-04-16T10:39:00.807Z,6.50
2023-04-16T10:41:29.056Z,6.70
2023-04-16T10:44:09.960Z,5.80
2023-04-16T10:46:42.920Z,6.10
2023-04-16T10:49:13.880Z,5.70
2023-04-16T10:51:42.153Z,6.30
2023-04-16T10:54:14.664Z,6.00
2023-04-16T10:56:45.203Z,5.70
2023-04-16T10:59:20.494Z,7.20
2023-04-16T11:01:55.377Z,8.40
2023-04-16T11:04:28.695Z,8.60
2023-04-16T11:07:11.831Z,7.90
2023-04-16T11:09:47.308Z,7.40
2023-04-16T11:12:35.857Z,6.00
2023-04-16T11:15:06.527Z,6.40
2023-04-16T11:17:43.215Z,6.30
2023-04-16T11:20:23.328Z,5.20
2023-04-16T11:22:52.920Z,5.90
2023-04-16T11:25:24.888Z,5.60
2023-04-16T11:27:53.342Z,5.50
2023-04-16T11:30:33.399Z,5.40
2023-04-16T11:33:06.102Z,5.00
2023-04-16T11:35:36.398Z,5.10
2023-04-16T11:38:06.200Z,5.30
2023-04-16T11:40:34.631Z,5.20
2023-04-16T11:43:59.927Z,5.00
2023-04-16T11:46:40.138Z,5.60
2023-04-16T11:49:10.972Z,4.80
2023-04-16T11:51:42.105Z,4.70
2023-04-16T11:54:11.885Z,4.80
2023-04-16T11:56:46.349Z,4.20
2023-04-16T11:59:14.597Z,4.20
2023-04-16T12:01:45.399Z,4.20
2023-04-16T12:04:15.279Z,4.50
2023-04-16T12:07:03.827Z,4.30
2023-04-16T12:09:30.700Z,6.20
2023-04-16T12:11:57.330Z,4.90
2023-04-16T12:14:26.786Z,4.50
2023-04-16T12:16:54.843Z,6.10
2023-04-16T12:19:21.302Z,3.90
2023-04-16T12:21:50.095Z,3.90
2023-04-16T12:24:23.435Z,3.70
2023-04-16T12:27:01.811Z,3.70
2023-04-16T12:29:28.248Z,3.40
2023-04-16T12:31:54.905Z,3.70
2023-04-16T12:34:22.243Z,3.40
2023-04-16T12:37:09.976Z,3.80
2023-04-16T12:39:36.382Z,3.80
2023-04-16T12:42:03.533Z,4.30
2023-04-16T12:44:30.336Z,4.70
2023-04-16T12:46:58.104Z,4.30
2023-04-16T12:49:24.750Z,6.40
2023-04-16T12:51:51.100Z,4.00
2023-04-16T12:54:17.649Z,4.00
2023-04-16T12:56:44.007Z,4.20
2023-04-16T12:59:11.081Z,4.00
2023-04-16T13:01:38.158Z,4.10
2023-04-16T13:04:05.393Z,3.70
2023-04-16T13:06:33.408Z,4.00
2023-04-16T13:09:00.480Z,3.80
2023-04-16T13:11:26.862Z,4.20
2023-04-16T13:13:53.279Z,4.00
2023-04-16T13:16:20.070Z,3.90
2023-04-16T13:18:46.514Z,3.80
2023-04-16T13:22:58.734Z,3.70
2023-04-16T13:25:26.601Z,3.20
2023-04-16T13:27:54.307Z,3.70
2023-04-16T13:30:22.173Z,3.40
2023-04-16T13:32:50.246Z,3.70
2023-04-16T13:35:18.296Z,3.50
2023-04-16T13:37:46.311Z,3.00
2023-04-16T13:40:14.255Z,3.50
2023-04-16T13:42:42.441Z,3.20
2023-04-16T13:45:11.477Z,3.10
2023-04-16T13:47:43.445Z,3.10
2023-04-16T13:50:11.458Z,3.30
2023-04-16T13:52:39.258Z,3.30
2023-04-16T13:55:09.503Z,3.10
2023-04-16T13:57:37.495Z,3.20
2023-04-16T14:00:06.142Z,3.10
2023-04-16T14:02:37.244Z,3.10
2023-04-16T14:05:06.903Z,2.90
2023-04-16T14:07:35.058Z,2.90
2023-04-16T14:10:03.035Z,2.80
2023-04-16T14:12:31.777Z,3.00
2023-04-16T14:14:59.984Z,3.20
2023-04-16T14:17:28.470Z,3.20
2023-04-16T14:22:44.817Z,6.00
2023-04-16T14:25:14.939Z,5.30
2023-04-16T14:27:42.860Z,3.20
2023-04-16T14:30:11.234Z,3.30
2023-04-16T14:32:39.199Z,3.50
2023-04-16T14:35:08.361Z,3.70
2023-04-16T14:37:39.002Z,3.70
2023-04-16T14:40:08.800Z,3.80
2023-04-16T14:42:38.175Z,4.00
2023-04-16T14:45:07.829Z,4.50
2023-04-16T14:47:38.455Z,4.60
2023-04-16T14:50:07.824Z,4.50
2023-04-16T14:52:38.274Z,4.50
2023-04-16T14:55:06.948Z,4.50
2023-04-16T14:57:35.362Z,4.80
2023-04-16T15:00:10.791Z,4.20
2023-04-16T15:02:38.880Z,4.50
2023-04-16T15:05:09.854Z,4.20
2023-04-16T15:07:37.721Z,4.50
2023-04-16T15:11:26.800Z,4.70
2023-04-16T15:13:54.668Z,4.30
2023-04-16T15:16:22.534Z,4.20
2023-04-16T15:18:53.470Z,4.20
2023-04-16T15:21:21.406Z,4.30
2023-04-16T15:23:49.300Z,4.00
2023-04-16T15:26:17.119Z,4.70
2023-04-16T15:28:44.861Z,4.50
2023-04-16T15:31:12.554Z,5.40
2023-04-16T15:33:40.513Z,5.10
2023-04-16T15:36:08.551Z,5.00
2023-04-16T15:38:36.376Z,5.10
2023-04-16T15:41:04.128Z,4.70
2023-04-16T15:43:32.594Z,5.10
2023-04-16T15:46:02.620Z,5.00
2023-04-16T15:48:30.872Z,4.90
2023-04-16T15:50:59.412Z,5.10
2023-04-16T15:53:27.413Z,5.40
2023-04-16T15:55:55.508Z,5.00
2023-04-16T15:58:23.307Z,5.10
2023-04-16T16:00:51.643Z,5.10
2023-04-16T16:03:20.608Z,4.80
2023-04-16T16:05:48.892Z,5.20
2023-04-16T16:08:17.030Z,5.30
2023-04-16T16:10:44.813Z,5.10
2023-04-16T16:13:14.164Z,5.50
2023-04-16T16:15:42.366Z,5.90
2023-04-16T16:18:10.307Z,5.40
2023-04-16T16:20:38.978Z,5.40
2023-04-16T16:23:07.181Z,5.50
2023-04-16T16:25:34.938Z,5.60
2023-04-16T16:28:06.331Z,5.60
2023-04-16T16:30:34.356Z,5.70
2023-04-16T16:33:02.171Z,5.80
2023-04-16T16:35:30.065Z,5.90
2023-04-16T16:37:59.449Z,5.90
2023-04-16T16:40:28.206Z,6.40
2023-04-16T16:42:56.209Z,6.70
2023-04-16T16:45:26.089Z,6.50
2023-04-16T16:47:54.970Z,6.60
2023-04-16T16:50:22.828Z,6.70
2023-04-16T16:52:50.472Z,6.60
2023-04-16T16:55:19.075Z,6.30
2023-04-16T16:57:46.959Z,6.70
2023-04-16T17:00:15.908Z,6.80
2023-04-16T17:02:44.031Z,7.30
2023-04-16T17:05:12.809Z,7.60
2023-04-16T17:07:40.538Z,7.80
2023-04-16T17:10:11.247Z,7.50
2023-04-16T17:12:39.019Z,7.50
2023-04-16T17:15:07.109Z,7.30
2023-04-16T17:17:35.243Z,8.10
2023-04-16T17:20:08.866Z,7.30
2023-04-16T17:22:38.006Z,8.00
2023-04-16T17:25:07.648Z,7.60
2023-04-16T17:27:35.559Z,7.60
2023-04-16T17:30:05.484Z,7.80
2023-04-16T17:32:33.363Z,8.00
2023-04-16T17:35:04.036Z,8.20
2023-04-16T17:37:32.417Z,8.00
2023-04-16T17:40:00.466Z,8.40
2023-04-16T17:42:28.170Z,8.10
2023-04-16T17:44:56.057Z,8.40
2023-04-16T17:47:23.908Z,8.50
2023-04-16T17:49:55.451Z,8.60
2023-04-16T17:52:23.246Z,8.80
2023-04-16T17:54:51.214Z,8.40
2023-04-16T17:57:18.875Z,9.00
2023-04-16T17:59:46.593Z,8.90
2023-04-16T18:02:14.477Z,8.80
2023-04-16T18:04:42.414Z,9.00
2023-04-16T18:07:10.261Z,9.10
2023-04-16T18:09:38.031Z,9.00
2023-04-16T18:12:06.435Z,9.00
2023-04-16T18:14:38.775Z,9.10
2023-04-16T18:17:06.837Z,9.50
2023-04-16T18:19:35.659Z,9.90
2023-04-16T18:22:03.481Z,10.00
2023-04-16T18:24:33.285Z,10.00
2023-04-16T18:27:01.746Z,10.30
2023-04-16T18:29:29.814Z,10.50
2023-04-16T18:31:58.081Z,11.20
2023-04-16T18:34:25.937Z,11.40
2023-04-16T18:36:53.643Z,11.10
2023-04-16T18:39:21.341Z,10.90
2023-04-16T18:41:49.252Z,11.20
2023-04-16T18:44:17.710Z,11.30
2023-04-16T18:46:46.419Z,11.50
2023-04-16T18:49:14.204Z,11.00
2023-04-16T18:51:44.700Z,11.20
2023-04-16T18:54:12.697Z,11.70
2023-04-16T18:56:40.730Z,11.70
2023-04-16T18:59:08.707Z,11.90
2023-04-16T19:01:36.758Z,11.80
2023-04-16T19:04:04.587Z,11.30
2023-04-16T19:06:32.754Z,11.80
2023-04-16T19:09:00.787Z,11.60
2023-04-16T19:11:28.605Z,12.10
2023-04-16T19:13:57.533Z,12.60
2023-04-16T19:16:28.016Z,12.90
2023-04-16T19:18:55.705Z,12.80
2023-04-16T19:21:23.421Z,13.30
2023-04-16T19:23:51.176Z,13.50
2023-04-16T19:26:18.906Z,13.30
2023-04-16T19:28:46.812Z,13.50
2023-04-16T19:31:14.498Z,13.10
2023-04-16T19:33:42.319Z,14.10
2023-04-16T19:36:09.959Z,14.10
2023-04-16T19:38:37.676Z,13.70
2023-04-16T19:41:05.393Z,14.40
2023-04-16T19:43:33.149Z,14.40
2023-04-16T19:46:00.977Z,14.20
2023-04-16T19:48:30.942Z,14.50
2023-04-16T19:51:03.343Z,15.00
2023-04-16T19:53:31.152Z,14.60
2023-04-16T19:55:58.798Z,14.80
2023-04-16T19:58:27.227Z,15.10
2023-04-16T20:00:55.726Z,15.80
2023-04-16T20:03:23.532Z,15.60
2023-04-16T20:05:51.350Z,16.30
2023-04-16T20:08:21.402Z,15.60
2023-04-16T20:10:49.321Z,16.60
2023-04-16T20:13:18.550Z,17.30
2023-04-16T20:15:47.354Z,17.80
2023-04-16T20:18:15.572Z,18.10
2023-04-16T20:20:43.407Z,17.30
2023-04-16T20:23:11.249Z,17.00
2023-04-16T20:25:42.932Z,17.00
2023-04-16T20:28:10.831Z,17.00
2023-04-16T20:30:41.393Z,16.50
2023-04-16T20:33:09.479Z,17.30
2023-04-16T20:35:37.288Z,17.10
2023-04-16T20:38:05.044Z,17.40
2023-04-16T20:40:32.891Z,17.50
2023-04-16T20:43:00.521Z,17.20
2023-04-16T20:45:32.199Z,18.00
2023-04-16T20:48:00.561Z,17.10
2023-04-16T20:50:28.830Z,17.70
2023-04-16T20:52:56.500Z,17.40
2023-04-16T20:55:24.564Z,18.30
2023-04-16T20:57:52.252Z,18.20
2023-04-16T21:00:20.213Z,18.30
2023-04-16T21:02:47.995Z,17.60
2023-04-16T21:05:16.303Z,17.40
2023-04-16T21:07:44.128Z,18.10
2023-04-16T21:10:11.851Z,17.60
2023-04-16T21:12:39.777Z,18.60
2023-04-16T21:15:08.228Z,18.50
2023-04-16T21:17:35.958Z,17.50
2023-04-16T21:20:06.941Z,18.10
2023-04-16T21:22:34.667Z,17.80
2023-04-16T21:25:02.745Z,17.20
2023-04-16T21:27:30.441Z,17.90
2023-04-16T21:29:58.112Z,18.00
2023-04-16T21:32:26.211Z,17.50
2023-04-16T21:34:54.074Z,17.90
2023-04-16T21:37:21.734Z,18.60
2023-04-16T21:39:49.393Z,18.00
2023-04-16T21:42:17.024Z,17.70
2023-04-16T21:44:44.657Z,17.80
2023-04-16T21:47:12.830Z,18.00
2023-04-16T21:49:42.225Z,18.40
2023-04-16T21:52:18.329Z,17.60
2023-04-16T21:54:46.737Z,17.20
2023-04-16T21:57:14.785Z,17.80
2023-04-16T21:59:42.542Z,18.20
2023-04-16T22:02:10.460Z,17.90
2023-04-16T22:04:38.591Z,17.30
2023-04-16T22:07:09.110Z,18.50
2023-04-16T22:09:36.838Z,17.80
2023-04-16T22:12:07.048Z,18.60
2023-04-16T22:14:34.891Z,17.90
2023-04-16T22:17:03.667Z,18.40
2023-04-16T22:19:31.893Z,17.80
2023-04-16T22:21:59.579Z,17.80
2023-04-16T22:24:28.292Z,18.50
2023-04-16T22:26:57.246Z,18.10
2023-04-16T22:29:25.082Z,18.80
2023-04-16T22:31:52.838Z,18.70
2023-04-16T22:34:22.713Z,17.80
2023-04-16T22:36:50.325Z,18.50
2023-04-16T22:39:17.995Z,17.70
2023-04-16T22:41:45.852Z,19.00
2023-04-16T22:44:13.461Z,18.50
2023-04-16T22:46:41.404Z,18.50
2023-04-16T22:49:09.345Z,17.60
2023-04-16T22:51:38.219Z,18.50
2023-04-16T22:54:09.272Z,15.40
2023-04-16T22:56:38.910Z,18.00
2023-04-16T22:59:07.483Z,17.50
2023-04-16T23:01:35.341Z,17.80
2023-04-16T23:04:03.259Z,18.00
2023-04-16T23:06:31.764Z,17.90
2023-04-16T23:08:59.421Z,17.70
2023-04-16T23:11:27.056Z,18.00
2023-04-16T23:13:54.784Z,18.10
2023-04-16T23:16:22.506Z,17.90
2023-04-16T23:18:50.366Z,18.50
2023-04-16T23:21:18.003Z,17.90
2023-04-16T23:23:45.758Z,18.40
2023-04-16T23:26:13.438Z,19.00
2023-04-16T23:28:41.366Z,18.60
2023-04-16T23:31:09.093Z,18.50
2023-04-16T23:33:36.770Z,19.00
2023-04-16T23:36:04.770Z,18.40
2023-04-16T23:38:32.529Z,18.30
2023-04-16T23:41:00.833Z,18.60
2023-04-16T23:43:28.612Z,19.40
2023-04-16T23:45:56.595Z,20.50
2023-04-16T23:48:24.393Z,21.90
2023-04-16T23:50:51.987Z,21.00
2023-04-16T23:53:19.968Z,22.70
2023-04-16T23:55:47.647Z,21.10
2023-04-16T23:58:15.726Z,20.60
